Latest Coastal Weather Observations for Warruwi

IDD60701

Issued at 9:01 am CST Saturday 20 December 2014 (issued every 10 minutes, with the page automatically refreshed every 10 minutes)

About coastal observations | Map of coastal stations | Coastal observations for NT | Marine services | Other Formats
Station Details ID: 014401 Name: WARRUWI AIRPORT Lat: -11.65 Lon: 133.38 Height: 19.2 m
Data from the previous 72 hours. | See also: Recent months at Warruwi
Date/Time
CST
Temp

°C
Wind Pressure Rain
since 9am
mm
Weather Cloud Vis
km
Sea
Height
m
Swell
Dir
 
Speed
knots
Gust
knots
hPa Trend Height
m
Period
s
Dir
20/09:00am 31.9 W 7 10 1010.6 - 0.0 - - - - - - -
20/08:30am 30.8 WSW 6 9 1010.7 - 0.0 - - - - - - -
20/08:00am 30.7 W 6 9 1010.4 - 0.0 - - - - - - -
20/07:30am 30.8 WNW 6 9 1010.1 - 0.0 - - - - - - -
20/07:00am 30.1 WNW 2 4 1009.8 - 0.0 - - - - - - -
20/06:30am 29.4 NW 2 3 1009.1 - 0.0 - - - - - - -
20/06:00am 29.3 WNW 2 3 1008.9 - 0.0 - - - - - - -
20/05:30am 29.0 NW 2 3 1008.7 - 0.0 - - - - - - -
20/05:00am 29.3 NW 2 3 1008.2 - 0.0 - - - - - - -
20/04:30am 29.2 NW 2 3 1008.3 - 0.0 - - - - - - -
20/04:00am 29.2 WNW 2 3 1008.2 - 0.0 - - - - - - -
20/03:30am 29.2 NNW 1 3 1008.1 - 0.0 - - - - - - -
20/03:00am 29.5 N 1 3 1008.5 - 0.0 - - - - - - -
20/02:30am 29.6 NW 2 3 1008.6 - 0.0 - - - - - - -
20/02:00am 29.6 N 2 4 1008.8 - 0.0 - - - - - - -
20/01:30am 29.6 NNW 2 3 1009.1 - 0.0 - - - - - - -
20/01:00am 29.2 N 1 3 1009.2 - 0.0 - - - - - - -
20/12:30am 29.6 CALM 0 0 1010.1 - 0.0 - - - - - - -
20/12:00am 30.1 NNE 1 2 1010.5 - 0.0 - - - - - - -
 
Date/Time
CST
Temp

°C
Wind Pressure Rain
since 9am
mm
Weather Cloud Vis
km
Sea
Height
m
Swell
Dir
 
Speed
knots
Gust
knots
hPa Trend Height
m
Period
s
Dir
19/11:30pm 30.2 NNE 2 5 1010.5 - 0.0 - - - - - - -
19/11:00pm 30.2 N 2 4 1010.5 - 0.0 - - - - - - -
19/10:30pm 30.3 N 2 4 1010.4 - 0.0 - - - - - - -
19/10:00pm 30.3 N 2 4 1010.2 - 0.0 - - - - - - -
19/09:30pm 30.5 N 2 4 1010.0 - 0.0 - - - - - - -
19/09:00pm 30.6 NNW 3 6 1009.6 - 0.0 - - - - - - -
19/08:30pm 30.6 N 3 4 1009.2 - 0.0 - - - - - - -
19/08:00pm 30.9 N 3 5 1008.9 - 0.0 - - - - - - -
19/07:30pm 31.1 NNE 3 5 1008.3 - 0.0 - - - - - - -
19/07:00pm 31.1 N 4 8 1007.5 - 0.0 - - - - - - -
19/06:30pm 31.7 N 4 7 1007.0 - 0.0 - - - - - - -
19/06:00pm 32.2 N 6 10 1006.8 - 0.0 - - - - - - -
19/05:30pm 32.6 N 5 9 1006.6 - 0.0 - - - - - - -
19/05:00pm 32.9 N 5 10 1006.7 - 0.0 - - - - - - -
19/04:30pm 33.5 N 6 9 1007.0 - 0.0 - - - - - - -
19/04:00pm 33.6 NNW 7 11 1007.0 - 0.0 - - - - - - -
19/03:30pm 34.7 N 5 9 1007.2 - 0.0 - - - - - - -
19/03:00pm 35.2 N 6 10 1007.7 - 0.0 - - - - - - -
19/02:30pm 35.2 N 5 9 1008.1 - 0.0 - - - - - - -
19/02:00pm 35.3 N 5 9 1008.4 - 0.0 - - - - - - -
19/01:30pm 34.5 N 5 8 1008.7 - 0.0 - - - - - - -
19/01:00pm 33.7 NW 3 5 1009.2 - 0.0 - - - - - - -
19/12:30pm 34.3 W 4 8 1009.7 - 0.0 - - - - - - -
19/12:00pm 34.4 W 7 10 1010.2 - 0.0 - - - - - - -
19/11:30am 34.2 WNW 5 8 1010.5 - 0.0 - - - - - - -
19/11:00am 33.0 W 6 8 1010.9 - 0.0 - - - - - - -
19/10:30am 32.5 W 6 10 1011.1 - 0.0 - - - - - - -
19/10:00am 32.8 W 5 8 1011.0 - 0.0 - - - - - - -
19/09:30am 31.5 W 5 9 1011.2 - 0.0 - - - - - - -
19/09:00am 30.9 WNW 5 7 1011.2 - 0.0 - - - - - - -
19/08:30am 30.9 W 5 8 1011.2 - 0.0 - - - - - - -
19/08:00am 31.1 WNW 4 6 1010.9 - 0.0 - - - - - - -
19/07:30am 30.4 WNW 1 3 1010.9 - 0.0 - - - - - - -
19/07:00am 29.5 NW 2 4 1010.7 - 0.0 - - - - - - -
19/06:30am 29.6 WNW 3 5 1010.3 - 0.0 - - - - - - -
19/06:00am 29.4 W 2 3 1009.9 - 0.0 - - - - - - -
19/05:30am 29.4 NW 2 4 1009.6 - 0.0 - - - - - - -
19/05:00am 29.8 WNW 3 6 1009.4 - 0.0 - - - - - - -
19/04:30am 29.9 WNW 3 6 1009.3 - 0.0 - - - - - - -
19/04:00am 29.5 NNW 2 4 1009.2 - 0.0 - - - - - - -
19/03:30am 29.4 NNW 1 2 1009.1 - 0.0 - - - - - - -
19/03:00am 29.4 NW 2 3 1008.8 - 0.0 - - - - - - -
19/02:30am 29.4 NW 3 5 1008.6 - 0.0 - - - - - - -
19/02:00am 29.5 NNW 2 5 1008.9 - 0.0 - - - - - - -
19/01:30am 29.6 NNW 2 3 1009.1 - 0.0 - - - - - - -
19/01:00am 29.8 NNW 2 4 1009.2 - 0.0 - - - - - - -
19/12:30am 29.9 NNW 2 5 1009.4 - 0.0 - - - - - - -
19/12:00am 30.0 NW 2 4 1010.0 - 0.0 - - - - - - -
 
Date/Time
CST
Temp

°C
Wind Pressure Rain
since 9am
mm
Weather Cloud Vis
km
Sea
Height
m
Swell
Dir
 
Speed
knots
Gust
knots
hPa Trend Height
m
Period
s
Dir
18/11:30pm 30.1 NW 2 5 1010.3 - 0.0 - - - - - - -
18/11:00pm 30.1 NW 2 4 1010.2 - 0.0 - - - - - - -
18/10:30pm 30.2 NW 3 6 1009.8 - 0.0 - - - - - - -
18/10:00pm 30.2 NW 3 5 1009.6 - 0.0 - - - - - - -
18/09:30pm 30.2 NW 3 5 1009.4 - 0.0 - - - - - - -
18/09:00pm 30.3 NNW 3 6 1008.7 - 0.0 - - - - - - -
18/08:30pm 30.4 NNW 3 7 1008.5 - 0.0 - - - - - - -
18/08:00pm 30.5 NW 4 7 1008.1 - 0.0 - - - - - - -
18/07:30pm 30.4 NW 4 7 1007.9 - 0.0 - - - - - - -
18/07:00pm 30.6 NNW 3 7 1007.4 - 0.0 - - - - - - -
18/06:30pm 30.9 NNW 5 8 1007.2 - 0.0 - - - - - - -
18/06:00pm 31.0 NNW 6 10 1007.1 - 0.0 - - - - - - -
18/05:30pm 32.0 NNW 5 11 1007.1 - 0.0 - - - - - - -
18/05:00pm 32.1 NNW 7 12 1007.0 - 0.0 - - - - - - -
18/04:30pm 32.9 NNW 7 12 1006.7 - 0.0 - - - - - - -
18/04:00pm 33.0 NNW 7 14 1007.0 - 0.0 - - - - - - -
18/03:30pm 33.3 N 7 13 1007.3 - 0.0 - - - - - - -
18/03:00pm 33.3 NNW 7 12 1007.4 - 0.0 - - - - - - -
18/02:30pm 33.6 N 7 11 1007.8 - 0.0 - - - - - - -
18/02:00pm 33.3 NNW 7 11 1008.1 - 0.0 - - - - - - -
18/01:30pm 33.3 N 7 11 1008.5 - 0.0 - - - - - - -
18/01:00pm 33.9 NW 6 9 1008.7 - 0.0 - - - - - - -
18/12:30pm 33.4 NNW 6 9 1009.0 - 0.0 - - - - - - -
18/12:00pm 33.4 NNW 6 10 1009.4 - 0.0 - - - - - - -
18/11:30am 32.4 NW 4 7 1009.8 - 0.0 - - - - - - -
18/11:00am 32.3 WNW 7 10 1010.2 - 0.0 - - - - - - -
18/10:30am 32.3 NW 5 8 1010.3 - 0.0 - - - - - - -
18/10:00am 32.2 WNW 7 10 1010.2 - 0.0 - - - - - - -
18/09:30am 31.5 WNW 6 9 1010.2 - 0.0 - - - - - - -
18/09:00am 31.4 WNW 5 8 1010.3 - 0.0 - - - - - - -
18/08:30am 31.1 WNW 3 6 1009.9 - 0.0 - - - - - - -
18/08:00am 30.8 WNW 4 7 1009.6 - 0.0 - - - - - - -
18/07:30am 30.4 NW 3 5 1009.3 - 0.0 - - - - - - -
18/07:00am 30.0 WNW 4 7 1008.8 - 0.0 - - - - - - -
18/06:30am 29.1 WNW 1 3 1008.3 - 0.0 - - - - - - -
18/06:00am 29.1 WSW 3 4 1007.8 - 0.0 - - - - - - -
18/05:30am 29.1 WSW 4 7 1007.5 - 0.0 - - - - - - -
18/05:00am 29.1 WSW 4 6 1007.3 - 0.0 - - - - - - -
18/04:30am 29.3 WSW 4 6 1007.3 - 0.0 - - - - - - -
18/04:00am 29.4 W 5 7 1007.2 - 0.0 - - - - - - -
18/03:30am 29.5 W 6 8 1007.1 - 0.0 - - - - - - -
18/03:00am 29.6 W 6 8 1007.0 - 0.0 - - - - - - -
18/02:30am 30.0 WNW 6 9 1007.0 - 0.0 - - - - - - -
18/02:00am 30.0 NW 5 10 1007.0 - 0.0 - - - - - - -
18/01:30am 30.0 WNW 5 8 1007.2 - 0.0 - - - - - - -
18/01:00am 30.1 WNW 5 9 1007.7 - 0.0 - - - - - - -
18/12:30am 30.2 NW 5 8 1008.0 - 0.0 - - - - - - -
18/12:00am 30.3 NW 6 8 1008.1 - 0.0 - - - - - - -
 
Date/Time
CST
Temp

°C
Wind Pressure Rain
since 9am
mm
Weather Cloud Vis
km
Sea
Height
m
Swell
Dir
 
Speed
knots
Gust
knots
hPa Trend Height
m
Period
s
Dir
17/11:30pm 30.3 WNW 5 7 1008.4 - 0.0 - - - - - - -
17/11:00pm 30.3 NW 5 8 1008.6 - 0.0 - - - - - - -
17/10:30pm 30.4 WNW 4 8 1008.6 - 0.0 - - - - - - -
17/10:00pm 30.4 NW 5 9 1008.6 - 0.0 - - - - - - -
17/09:30pm 30.5 WNW 5 9 1008.2 - 0.0 - - - - - - -
17/09:00pm 30.6 WNW 5 9 1008.0 - 0.0 - - - - - - -
17/08:30pm 30.6 WNW 6 9 1007.7 - 0.0 - - - - - - -
17/08:00pm 30.5 WNW 3 6 1007.2 - 0.0 - - - - - - -
17/07:30pm 30.5 NW 4 7 1006.6 - 0.0 - - - - - - -
17/07:00pm 30.4 WNW 3 5 1006.2 - 0.0 - - - - - - -
17/06:30pm 30.4 NNW 3 6 1006.0 - 0.0 - - - - - - -
17/06:00pm 30.4 NW 6 10 1005.2 - 0.0 - - - - - - -
17/05:30pm 31.4 WNW 8 11 1005.5 - 0.0 - - - - - - -
17/05:00pm 32.1 NW 7 14 1004.8 - 0.0 - - - - - - -
17/04:30pm 32.3 NW 9 16 1004.7 - 0.0 - - - - - - -
17/04:00pm 32.9 NNW 8 15 1005.2 - 0.0 - - - - - - -
17/03:30pm 32.7 NW 9 15 1005.5 - 0.0 - - - - - - -
17/03:00pm 33.0 N 8 13 1005.2 - 0.0 - - - - - - -
17/02:30pm 33.3 N 7 16 1005.7 - 0.0 - - - - - - -
17/02:00pm 32.4 NNW 7 11 1006.1 - 0.0 - - - - - - -
17/01:30pm 33.0 N 7 14 1006.4 - 0.0 - - - - - - -
17/01:00pm 33.9 NNW 7 11 1006.7 - 0.0 - - - - - - -
17/12:30pm 33.9 NNW 6 10 1007.4 - 0.0 - - - - - - -
17/12:00pm 33.3 NNW 7 10 1007.8 - 0.0 - - - - - - -
17/11:30am 33.3 NNW 6 13 1008.1 - 0.0 - - - - - - -
17/11:00am 33.8 W 8 12 1008.5 - 0.0 - - - - - - -
17/10:30am 32.5 WNW 7 10 1008.5 - 0.0 - - - - - - -
17/10:00am 32.0 WNW 5 8 1008.7 - 0.0 - - - - - - -
17/09:30am 32.1 W 8 11 1008.5 - 0.0 - - - - - - -

Other Formats:

Comma delimited format used in spreadsheet applications
http://www.bom.gov.au/fwo/IDD60701/IDD60701.94139.axf

JavaScript Object Notation format (JSON) in row-major order
http://www.bom.gov.au/fwo/IDD60701/IDD60701.94139.json